sensor_id;sensor_type;location;lat;lon;timestamp;temperature;humidity
19050;DHT22;9657;45.940;12.840;2023-01-09T00:00:24;13.30;80.00
19050;DHT22;9657;45.940;12.840;2023-01-09T00:02:52;13.30;80.00
19050;DHT22;9657;45.940;12.840;2023-01-09T00:05:19;13.30;80.00
19050;DHT22;9657;45.940;12.840;2023-01-09T00:07:46;13.30;80.00
19050;DHT22;9657;45.940;12.840;2023-01-09T00:10:13;13.30;79.90
19050;DHT22;9657;45.940;12.840;2023-01-09T00:12:40;13.30;80.00
19050;DHT22;9657;45.940;12.840;2023-01-09T00:15:08;13.30;80.00
19050;DHT22;9657;45.940;12.840;2023-01-09T00:17:37;13.30;80.00
19050;DHT22;9657;45.940;12.840;2023-01-09T00:20:06;13.30;80.00
19050;DHT22;9657;45.940;12.840;2023-01-09T00:22:34;13.30;80.00
19050;DHT22;9657;45.940;12.840;2023-01-09T00:25:01;13.30;80.00
19050;DHT22;9657;45.940;12.840;2023-01-09T00:27:30;13.30;79.90
19050;DHT22;9657;45.940;12.840;2023-01-09T00:29:57;13.30;79.90
19050;DHT22;9657;45.940;12.840;2023-01-09T00:32:24;13.30;80.00
19050;DHT22;9657;45.940;12.840;2023-01-09T00:34:54;13.30;80.00
19050;DHT22;9657;45.940;12.840;2023-01-09T00:37:21;13.30;80.00
19050;DHT22;9657;45.940;12.840;2023-01-09T00:39:48;13.30;79.90
19050;DHT22;9657;45.940;12.840;2023-01-09T00:42:18;13.30;80.00
19050;DHT22;9657;45.940;12.840;2023-01-09T00:44:49;13.30;80.00
19050;DHT22;9657;45.940;12.840;2023-01-09T00:47:21;13.30;80.00
19050;DHT22;9657;45.940;12.840;2023-01-09T00:49:49;13.30;80.00
19050;DHT22;9657;45.940;12.840;2023-01-09T00:52:19;13.30;79.90
19050;DHT22;9657;45.940;12.840;2023-01-09T00:54:47;13.30;80.00
19050;DHT22;9657;45.940;12.840;2023-01-09T00:57:14;13.30;80.00
19050;DHT22;9657;45.940;12.840;2023-01-09T00:59:42;13.30;80.00
19050;DHT22;9657;45.940;12.840;2023-01-09T01:02:09;13.30;80.00
19050;DHT22;9657;45.940;12.840;2023-01-09T01:04:36;13.30;80.00
19050;DHT22;9657;45.940;12.840;2023-01-09T01:07:22;13.30;80.00
19050;DHT22;9657;45.940;12.840;2023-01-09T01:10:09;13.30;80.00
19050;DHT22;9657;45.940;12.840;2023-01-09T01:12:37;13.30;80.00
19050;DHT22;9657;45.940;12.840;2023-01-09T01:15:05;13.30;80.00
19050;DHT22;9657;45.940;12.840;2023-01-09T01:17:33;13.30;80.00
19050;DHT22;9657;45.940;12.840;2023-01-09T01:20:01;13.20;79.90
19050;DHT22;9657;45.940;12.840;2023-01-09T01:22:29;13.30;80.00
19050;DHT22;9657;45.940;12.840;2023-01-09T01:24:56;13.30;80.00
19050;DHT22;9657;45.940;12.840;2023-01-09T01:27:23;13.30;80.00
19050;DHT22;9657;45.940;12.840;2023-01-09T01:29:50;13.20;79.90
19050;DHT22;9657;45.940;12.840;2023-01-09T01:32:18;13.30;80.00
19050;DHT22;9657;45.940;12.840;2023-01-09T01:34:45;13.30;80.00
19050;DHT22;9657;45.940;12.840;2023-01-09T01:37:12;13.30;80.00
19050;DHT22;9657;45.940;12.840;2023-01-09T01:39:40;13.20;79.90
19050;DHT22;9657;45.940;12.840;2023-01-09T01:42:08;13.20;79.90
19050;DHT22;9657;45.940;12.840;2023-01-09T01:45:01;13.30;80.00
19050;DHT22;9657;45.940;12.840;2023-01-09T01:47:37;13.20;80.70
19050;DHT22;9657;45.940;12.840;2023-01-09T01:50:11;13.30;80.00
19050;DHT22;9657;45.940;12.840;2023-01-09T01:52:39;13.30;80.00
19050;DHT22;9657;45.940;12.840;2023-01-09T01:55:09;13.20;79.90
19050;DHT22;9657;45.940;12.840;2023-01-09T01:57:39;13.20;79.90
19050;DHT22;9657;45.940;12.840;2023-01-09T02:02:44;13.30;80.00
19050;DHT22;9657;45.940;12.840;2023-01-09T02:05:11;13.20;79.90
19050;DHT22;9657;45.940;12.840;2023-01-09T02:07:38;13.20;80.00
19050;DHT22;9657;45.940;12.840;2023-01-09T02:10:08;13.30;80.00
19050;DHT22;9657;45.940;12.840;2023-01-09T02:12:35;13.20;80.00
19050;DHT22;9657;45.940;12.840;2023-01-09T02:15:06;13.20;80.00
19050;DHT22;9657;45.940;12.840;2023-01-09T02:18:11;13.30;80.00
19050;DHT22;9657;45.940;12.840;2023-01-09T02:20:46;13.20;80.00
19050;DHT22;9657;45.940;12.840;2023-01-09T02:23:55;13.20;80.00
19050;DHT22;9657;45.940;12.840;2023-01-09T02:32:31;13.20;80.00
19050;DHT22;9657;45.940;12.840;2023-01-09T02:35:09;13.20;80.00
19050;DHT22;9657;45.940;12.840;2023-01-09T02:37:44;13.20;80.00
19050;DHT22;9657;45.940;12.840;2023-01-09T02:40:21;13.20;80.00
19050;DHT22;9657;45.940;12.840;2023-01-09T02:42:51;13.20;80.00
19050;DHT22;9657;45.940;12.840;2023-01-09T02:45:18;13.20;80.00
19050;DHT22;9657;45.940;12.840;2023-01-09T02:47:47;13.30;80.00
19050;DHT22;9657;45.940;12.840;2023-01-09T02:50:19;13.20;80.00
19050;DHT22;9657;45.940;12.840;2023-01-09T02:55:52;13.20;80.00
19050;DHT22;9657;45.940;12.840;2023-01-09T02:58:45;13.20;80.00
19050;DHT22;9657;45.940;12.840;2023-01-09T03:01:24;13.20;80.00
19050;DHT22;9657;45.940;12.840;2023-01-09T03:04:00;13.20;80.00
19050;DHT22;9657;45.940;12.840;2023-01-09T03:06:33;13.20;80.00
19050;DHT22;9657;45.940;12.840;2023-01-09T03:09:07;13.20;80.10
19050;DHT22;9657;45.940;12.840;2023-01-09T03:11:41;13.20;80.00
19050;DHT22;9657;45.940;12.840;2023-01-09T03:14:12;13.20;80.00
19050;DHT22;9657;45.940;12.840;2023-01-09T03:16:43;13.20;80.00
19050;DHT22;9657;45.940;12.840;2023-01-09T03:19:17;13.30;80.10
19050;DHT22;9657;45.940;12.840;2023-01-09T03:21:45;13.20;80.00
19050;DHT22;9657;45.940;12.840;2023-01-09T03:24:13;13.20;80.00
19050;DHT22;9657;45.940;12.840;2023-01-09T03:26:40;13.20;80.00
19050;DHT22;9657;45.940;12.840;2023-01-09T03:29:08;13.20;80.00
19050;DHT22;9657;45.940;12.840;2023-01-09T03:31:35;13.30;80.10
19050;DHT22;9657;45.940;12.840;2023-01-09T03:34:02;13.20;80.00
19050;DHT22;9657;45.940;12.840;2023-01-09T03:36:31;13.20;80.10
19050;DHT22;9657;45.940;12.840;2023-01-09T03:38:58;13.20;80.00
19050;DHT22;9657;45.940;12.840;2023-01-09T03:41:25;13.20;80.00
19050;DHT22;9657;45.940;12.840;2023-01-09T03:43:52;13.20;80.00
19050;DHT22;9657;45.940;12.840;2023-01-09T03:46:19;13.20;80.00
19050;DHT22;9657;45.940;12.840;2023-01-09T03:48:46;13.20;80.00
19050;DHT22;9657;45.940;12.840;2023-01-09T03:51:13;13.20;80.00
19050;DHT22;9657;45.940;12.840;2023-01-09T03:53:41;13.30;80.10
19050;DHT22;9657;45.940;12.840;2023-01-09T03:56:08;13.20;80.00
19050;DHT22;9657;45.940;12.840;2023-01-09T03:58:35;13.20;80.10
19050;DHT22;9657;45.940;12.840;2023-01-09T04:01:04;13.30;80.10
19050;DHT22;9657;45.940;12.840;2023-01-09T04:03:34;13.20;80.00
19050;DHT22;9657;45.940;12.840;2023-01-09T04:06:01;13.20;80.10
19050;DHT22;9657;45.940;12.840;2023-01-09T04:08:28;13.20;80.00
19050;DHT22;9657;45.940;12.840;2023-01-09T04:10:57;13.20;80.00
19050;DHT22;9657;45.940;12.840;2023-01-09T04:13:24;13.20;80.00
19050;DHT22;9657;45.940;12.840;2023-01-09T04:15:51;13.20;80.00
19050;DHT22;9657;45.940;12.840;2023-01-09T04:18:18;13.20;80.00
19050;DHT22;9657;45.940;12.840;2023-01-09T04:20:46;13.20;80.00
19050;DHT22;9657;45.940;12.840;2023-01-09T04:23:13;13.20;80.10
19050;DHT22;9657;45.940;12.840;2023-01-09T04:25:40;13.20;80.00
19050;DHT22;9657;45.940;12.840;2023-01-09T04:28:09;13.20;80.00
19050;DHT22;9657;45.940;12.840;2023-01-09T04:30:36;13.20;80.00
19050;DHT22;9657;45.940;12.840;2023-01-09T04:33:03;13.20;80.10
19050;DHT22;9657;45.940;12.840;2023-01-09T04:35:30;13.20;80.00
19050;DHT22;9657;45.940;12.840;2023-01-09T04:37:57;13.20;80.10
19050;DHT22;9657;45.940;12.840;2023-01-09T04:40:25;13.20;80.00
19050;DHT22;9657;45.940;12.840;2023-01-09T04:42:52;13.20;80.00
19050;DHT22;9657;45.940;12.840;2023-01-09T04:45:20;13.20;80.00
19050;DHT22;9657;45.940;12.840;2023-01-09T04:47:47;13.20;80.00
19050;DHT22;9657;45.940;12.840;2023-01-09T04:50:15;13.20;80.00
19050;DHT22;9657;45.940;12.840;2023-01-09T04:52:42;13.30;80.90
19050;DHT22;9657;45.940;12.840;2023-01-09T04:55:09;13.20;80.00
19050;DHT22;9657;45.940;12.840;2023-01-09T04:57:36;13.20;80.00
19050;DHT22;9657;45.940;12.840;2023-01-09T05:00:04;13.20;80.00
19050;DHT22;9657;45.940;12.840;2023-01-09T05:02:35;13.20;80.10
19050;DHT22;9657;45.940;12.840;2023-01-09T05:05:04;13.20;80.10
19050;DHT22;9657;45.940;12.840;2023-01-09T05:07:31;13.20;80.00
19050;DHT22;9657;45.940;12.840;2023-01-09T05:09:58;13.20;80.10
19050;DHT22;9657;45.940;12.840;2023-01-09T05:12:25;13.20;80.10
19050;DHT22;9657;45.940;12.840;2023-01-09T05:14:52;13.20;80.00
19050;DHT22;9657;45.940;12.840;2023-01-09T05:17:19;13.20;80.00
19050;DHT22;9657;45.940;12.840;2023-01-09T05:19:47;13.20;80.10
19050;DHT22;9657;45.940;12.840;2023-01-09T05:22:14;13.20;80.10
19050;DHT22;9657;45.940;12.840;2023-01-09T05:24:41;13.20;80.10
19050;DHT22;9657;45.940;12.840;2023-01-09T05:27:08;13.20;80.00
19050;DHT22;9657;45.940;12.840;2023-01-09T05:29:36;13.20;80.00
19050;DHT22;9657;45.940;12.840;2023-01-09T05:32:03;13.20;80.10
19050;DHT22;9657;45.940;12.840;2023-01-09T05:34:30;13.20;80.10
19050;DHT22;9657;45.940;12.840;2023-01-09T05:36:59;13.20;80.10
19050;DHT22;9657;45.940;12.840;2023-01-09T05:39:26;13.20;80.00
19050;DHT22;9657;45.940;12.840;2023-01-09T05:41:53;13.20;80.10
19050;DHT22;9657;45.940;12.840;2023-01-09T05:44:20;13.20;80.10
19050;DHT22;9657;45.940;12.840;2023-01-09T05:46:47;13.20;80.10
19050;DHT22;9657;45.940;12.840;2023-01-09T05:49:14;13.20;80.10
19050;DHT22;9657;45.940;12.840;2023-01-09T05:51:41;13.20;80.10
19050;DHT22;9657;45.940;12.840;2023-01-09T05:54:09;13.20;80.20
19050;DHT22;9657;45.940;12.840;2023-01-09T05:56:36;13.20;80.30
19050;DHT22;9657;45.940;12.840;2023-01-09T05:59:03;13.20;80.30
19050;DHT22;9657;45.940;12.840;2023-01-09T06:01:30;13.20;80.30
19050;DHT22;9657;45.940;12.840;2023-01-09T06:03:57;13.20;80.40
19050;DHT22;9657;45.940;12.840;2023-01-09T06:06:24;13.20;80.30
19050;DHT22;9657;45.940;12.840;2023-01-09T06:08:51;13.20;80.40
19050;DHT22;9657;45.940;12.840;2023-01-09T06:11:20;13.20;80.40
19050;DHT22;9657;45.940;12.840;2023-01-09T06:13:47;13.20;80.40
19050;DHT22;9657;45.940;12.840;2023-01-09T06:16:14;13.20;80.40
19050;DHT22;9657;45.940;12.840;2023-01-09T06:18:41;13.20;80.40
19050;DHT22;9657;45.940;12.840;2023-01-09T06:21:08;13.20;80.40
19050;DHT22;9657;45.940;12.840;2023-01-09T06:23:34;13.20;80.40
19050;DHT22;9657;45.940;12.840;2023-01-09T06:26:02;13.20;80.40
19050;DHT22;9657;45.940;12.840;2023-01-09T06:28:30;13.20;80.50
19050;DHT22;9657;45.940;12.840;2023-01-09T06:30:57;13.20;80.40
19050;DHT22;9657;45.940;12.840;2023-01-09T06:33:24;13.20;80.40
19050;DHT22;9657;45.940;12.840;2023-01-09T06:35:51;13.30;80.50
19050;DHT22;9657;45.940;12.840;2023-01-09T06:38:18;13.30;80.50
19050;DHT22;9657;45.940;12.840;2023-01-09T06:40:46;13.20;80.40
19050;DHT22;9657;45.940;12.840;2023-01-09T06:43:14;13.30;80.50
19050;DHT22;9657;45.940;12.840;2023-01-09T06:45:43;13.20;80.40
19050;DHT22;9657;45.940;12.840;2023-01-09T06:48:10;13.30;80.50
19050;DHT22;9657;45.940;12.840;2023-01-09T06:50:37;13.20;80.40
19050;DHT22;9657;45.940;12.840;2023-01-09T06:53:04;13.30;80.40
19050;DHT22;9657;45.940;12.840;2023-01-09T06:55:31;13.30;80.40
19050;DHT22;9657;45.940;12.840;2023-01-09T06:57:58;13.20;80.40
19050;DHT22;9657;45.940;12.840;2023-01-09T07:00:25;13.30;80.50
19050;DHT22;9657;45.940;12.840;2023-01-09T07:02:54;13.30;80.40
19050;DHT22;9657;45.940;12.840;2023-01-09T07:05:21;13.30;80.50
19050;DHT22;9657;45.940;12.840;2023-01-09T07:07:48;13.20;80.40
19050;DHT22;9657;45.940;12.840;2023-01-09T07:10:15;13.30;80.40
19050;DHT22;9657;45.940;12.840;2023-01-09T07:12:42;13.30;80.50
19050;DHT22;9657;45.940;12.840;2023-01-09T07:15:10;13.30;80.50
19050;DHT22;9657;45.940;12.840;2023-01-09T07:17:37;13.20;80.40
19050;DHT22;9657;45.940;12.840;2023-01-09T07:20:06;13.30;80.50
19050;DHT22;9657;45.940;12.840;2023-01-09T07:22:34;13.30;80.40
19050;DHT22;9657;45.940;12.840;2023-01-09T07:25:01;13.30;80.50
19050;DHT22;9657;45.940;12.840;2023-01-09T07:27:28;13.30;80.50
19050;DHT22;9657;45.940;12.840;2023-01-09T07:29:54;13.30;80.40
19050;DHT22;9657;45.940;12.840;2023-01-09T07:32:21;13.30;80.40
19050;DHT22;9657;45.940;12.840;2023-01-09T07:34:48;13.30;80.40
19050;DHT22;9657;45.940;12.840;2023-01-09T07:37:17;13.30;80.40
19050;DHT22;9657;45.940;12.840;2023-01-09T07:39:44;13.30;80.40
19050;DHT22;9657;45.940;12.840;2023-01-09T07:42:12;13.30;80.40
19050;DHT22;9657;45.940;12.840;2023-01-09T07:44:39;13.30;80.40
19050;DHT22;9657;45.940;12.840;2023-01-09T07:47:06;13.30;80.40
19050;DHT22;9657;45.940;12.840;2023-01-09T07:49:33;13.30;80.40
19050;DHT22;9657;45.940;12.840;2023-01-09T07:52:00;13.30;80.40
19050;DHT22;9657;45.940;12.840;2023-01-09T07:54:28;13.30;80.50
19050;DHT22;9657;45.940;12.840;2023-01-09T07:56:55;13.30;80.50
19050;DHT22;9657;45.940;12.840;2023-01-09T07:59:22;13.30;80.40
19050;DHT22;9657;45.940;12.840;2023-01-09T08:01:49;13.30;80.40
19050;DHT22;9657;45.940;12.840;2023-01-09T08:04:16;13.30;80.40
19050;DHT22;9657;45.940;12.840;2023-01-09T08:06:43;13.30;80.50
19050;DHT22;9657;45.940;12.840;2023-01-09T08:09:10;13.30;80.40
19050;DHT22;9657;45.940;12.840;2023-01-09T08:11:39;13.30;80.40
19050;DHT22;9657;45.940;12.840;2023-01-09T08:14:07;13.30;80.50
19050;DHT22;9657;45.940;12.840;2023-01-09T08:16:34;13.30;80.50
19050;DHT22;9657;45.940;12.840;2023-01-09T08:19:01;13.30;80.40
19050;DHT22;9657;45.940;12.840;2023-01-09T08:21:28;13.30;80.50
19050;DHT22;9657;45.940;12.840;2023-01-09T08:23:55;13.30;80.50
19050;DHT22;9657;45.940;12.840;2023-01-09T08:26:22;13.30;80.50
19050;DHT22;9657;45.940;12.840;2023-01-09T08:28:50;13.30;80.50
19050;DHT22;9657;45.940;12.840;2023-01-09T08:31:17;13.30;80.80
19050;DHT22;9657;45.940;12.840;2023-01-09T08:33:44;13.30;80.50
19050;DHT22;9657;45.940;12.840;2023-01-09T08:36:11;13.30;80.50
19050;DHT22;9657;45.940;12.840;2023-01-09T08:38:38;13.30;80.60
19050;DHT22;9657;45.940;12.840;2023-01-09T08:41:05;13.30;80.60
19050;DHT22;9657;45.940;12.840;2023-01-09T08:43:46;13.30;80.60
19050;DHT22;9657;45.940;12.840;2023-01-09T08:46:31;13.30;80.60
19050;DHT22;9657;45.940;12.840;2023-01-09T08:49:16;13.30;80.60
19050;DHT22;9657;45.940;12.840;2023-01-09T08:51:43;13.30;80.60
19050;DHT22;9657;45.940;12.840;2023-01-09T08:54:10;13.30;80.60
19050;DHT22;9657;45.940;12.840;2023-01-09T08:56:37;13.30;80.60
19050;DHT22;9657;45.940;12.840;2023-01-09T08:59:04;13.30;80.60
19050;DHT22;9657;45.940;12.840;2023-01-09T09:01:33;13.30;80.60
19050;DHT22;9657;45.940;12.840;2023-01-09T09:04:00;13.30;80.60
19050;DHT22;9657;45.940;12.840;2023-01-09T09:06:27;13.30;80.60
19050;DHT22;9657;45.940;12.840;2023-01-09T09:08:54;13.30;80.60
19050;DHT22;9657;45.940;12.840;2023-01-09T09:11:21;13.30;80.70
19050;DHT22;9657;45.940;12.840;2023-01-09T09:13:48;13.30;80.70
19050;DHT22;9657;45.940;12.840;2023-01-09T09:16:15;13.30;80.60
19050;DHT22;9657;45.940;12.840;2023-01-09T09:18:44;13.30;80.60
19050;DHT22;9657;45.940;12.840;2023-01-09T09:21:11;13.30;80.70
19050;DHT22;9657;45.940;12.840;2023-01-09T09:23:38;13.30;80.70
19050;DHT22;9657;45.940;12.840;2023-01-09T09:26:05;13.30;80.70
19050;DHT22;9657;45.940;12.840;2023-01-09T09:28:32;13.30;80.70
19050;DHT22;9657;45.940;12.840;2023-01-09T09:30:59;13.30;80.70
19050;DHT22;9657;45.940;12.840;2023-01-09T09:33:26;13.30;80.60
19050;DHT22;9657;45.940;12.840;2023-01-09T09:35:57;13.30;80.60
19050;DHT22;9657;45.940;12.840;2023-01-09T09:38:24;13.30;80.70
19050;DHT22;9657;45.940;12.840;2023-01-09T09:41:15;13.30;80.70
19050;DHT22;9657;45.940;12.840;2023-01-09T09:44:15;13.30;80.70
19050;DHT22;9657;45.940;12.840;2023-01-09T09:47:10;13.30;80.70
19050;DHT22;9657;45.940;12.840;2023-01-09T09:49:49;13.30;80.80
19050;DHT22;9657;45.940;12.840;2023-01-09T09:52:29;13.30;80.70
19050;DHT22;9657;45.940;12.840;2023-01-09T09:55:10;13.30;80.70
19050;DHT22;9657;45.940;12.840;2023-01-09T09:57:40;13.30;80.70
19050;DHT22;9657;45.940;12.840;2023-01-09T10:00:15;13.30;80.80
19050;DHT22;9657;45.940;12.840;2023-01-09T10:02:46;13.30;80.70
19050;DHT22;9657;45.940;12.840;2023-01-09T10:05:19;13.30;80.70
19050;DHT22;9657;45.940;12.840;2023-01-09T10:07:49;13.30;80.70
19050;DHT22;9657;45.940;12.840;2023-01-09T10:10:22;13.30;80.70
19050;DHT22;9657;45.940;12.840;2023-01-09T10:12:53;13.30;80.70
19050;DHT22;9657;45.940;12.840;2023-01-09T10:15:33;13.30;80.60
19050;DHT22;9657;45.940;12.840;2023-01-09T10:18:12;13.30;80.60
19050;DHT22;9657;45.940;12.840;2023-01-09T10:21:04;13.30;80.60
19050;DHT22;9657;45.940;12.840;2023-01-09T10:23:48;13.30;80.70
19050;DHT22;9657;45.940;12.840;2023-01-09T10:26:26;13.40;80.70
19050;DHT22;9657;45.940;12.840;2023-01-09T10:32:00;13.30;80.70
19050;DHT22;9657;45.940;12.840;2023-01-09T10:34:41;13.30;80.70
19050;DHT22;9657;45.940;12.840;2023-01-09T10:37:13;13.30;80.70
19050;DHT22;9657;45.940;12.840;2023-01-09T10:39:46;13.30;80.60
19050;DHT22;9657;45.940;12.840;2023-01-09T10:42:19;13.30;80.60
19050;DHT22;9657;45.940;12.840;2023-01-09T10:44:53;13.30;80.60
19050;DHT22;9657;45.940;12.840;2023-01-09T10:47:24;13.30;80.60
19050;DHT22;9657;45.940;12.840;2023-01-09T10:49:53;13.30;80.60
19050;DHT22;9657;45.940;12.840;2023-01-09T10:52:25;13.30;80.60
19050;DHT22;9657;45.940;12.840;2023-01-09T10:55:00;13.30;80.60
19050;DHT22;9657;45.940;12.840;2023-01-09T10:57:40;13.40;80.60
19050;DHT22;9657;45.940;12.840;2023-01-09T11:00:14;13.40;80.70
19050;DHT22;9657;45.940;12.840;2023-01-09T11:02:42;13.40;80.60
19050;DHT22;9657;45.940;12.840;2023-01-09T11:05:12;13.40;80.60
19050;DHT22;9657;45.940;12.840;2023-01-09T11:07:42;13.40;80.60
19050;DHT22;9657;45.940;12.840;2023-01-09T11:10:12;13.40;80.60
19050;DHT22;9657;45.940;12.840;2023-01-09T11:12:40;13.40;80.60
19050;DHT22;9657;45.940;12.840;2023-01-09T11:15:25;13.40;80.60
19050;DHT22;9657;45.940;12.840;2023-01-09T11:20:39;13.40;80.60
19050;DHT22;9657;45.940;12.840;2023-01-09T11:23:25;13.30;80.50
19050;DHT22;9657;45.940;12.840;2023-01-09T11:25:55;13.40;80.60
19050;DHT22;9657;45.940;12.840;2023-01-09T11:28:23;13.40;80.60
19050;DHT22;9657;45.940;12.840;2023-01-09T11:30:52;13.40;80.50
19050;DHT22;9657;45.940;12.840;2023-01-09T11:33:21;13.40;80.60
19050;DHT22;9657;45.940;12.840;2023-01-09T11:35:56;13.40;80.50
19050;DHT22;9657;45.940;12.840;2023-01-09T11:38:24;13.40;80.60
19050;DHT22;9657;45.940;12.840;2023-01-09T11:40:54;13.40;80.60
19050;DHT22;9657;45.940;12.840;2023-01-09T11:43:27;13.40;80.60
19050;DHT22;9657;45.940;12.840;2023-01-09T11:45:58;13.40;80.60
19050;DHT22;9657;45.940;12.840;2023-01-09T11:48:32;13.40;80.50
19050;DHT22;9657;45.940;12.840;2023-01-09T11:51:01;13.40;80.60
19050;DHT22;9657;45.940;12.840;2023-01-09T11:53:28;13.40;80.50
19050;DHT22;9657;45.940;12.840;2023-01-09T11:56:09;13.40;80.50
19050;DHT22;9657;45.940;12.840;2023-01-09T11:58:38;13.40;80.60
19050;DHT22;9657;45.940;12.840;2023-01-09T12:01:18;13.40;80.50
19050;DHT22;9657;45.940;12.840;2023-01-09T12:04:09;13.40;80.50
19050;DHT22;9657;45.940;12.840;2023-01-09T12:06:48;13.40;80.50
19050;DHT22;9657;45.940;12.840;2023-01-09T12:09:25;13.40;80.50
19050;DHT22;9657;45.940;12.840;2023-01-09T12:11:58;13.40;80.50
19050;DHT22;9657;45.940;12.840;2023-01-09T12:14:37;13.40;80.50
19050;DHT22;9657;45.940;12.840;2023-01-09T12:17:25;13.40;80.60
19050;DHT22;9657;45.940;12.840;2023-01-09T12:20:14;13.40;80.50
19050;DHT22;9657;45.940;12.840;2023-01-09T12:22:47;13.40;80.50
19050;DHT22;9657;45.940;12.840;2023-01-09T12:25:22;13.40;80.50
19050;DHT22;9657;45.940;12.840;2023-01-09T12:28:12;13.40;80.50
19050;DHT22;9657;45.940;12.840;2023-01-09T12:30:51;13.40;80.60
19050;DHT22;9657;45.940;12.840;2023-01-09T12:33:31;13.40;80.50
19050;DHT22;9657;45.940;12.840;2023-01-09T12:36:09;13.40;80.50
19050;DHT22;9657;45.940;12.840;2023-01-09T12:38:41;13.40;80.50
19050;DHT22;9657;45.940;12.840;2023-01-09T12:41:41;13.40;80.50
19050;DHT22;9657;45.940;12.840;2023-01-09T12:44:32;13.40;80.50
19050;DHT22;9657;45.940;12.840;2023-01-09T12:47:13;13.40;80.50
19050;DHT22;9657;45.940;12.840;2023-01-09T12:49:48;13.40;80.50
19050;DHT22;9657;45.940;12.840;2023-01-09T12:52:21;13.40;80.50
19050;DHT22;9657;45.940;12.840;2023-01-09T12:54:53;13.40;80.40
19050;DHT22;9657;45.940;12.840;2023-01-09T12:57:28;13.40;80.50
19050;DHT22;9657;45.940;12.840;2023-01-09T13:00:00;13.40;80.40
19050;DHT22;9657;45.940;12.840;2023-01-09T13:02:33;13.40;80.40
19050;DHT22;9657;45.940;12.840;2023-01-09T13:05:05;13.40;80.40
19050;DHT22;9657;45.940;12.840;2023-01-09T13:07:39;13.40;80.40
19050;DHT22;9657;45.940;12.840;2023-01-09T13:10:17;13.40;80.50
19050;DHT22;9657;45.940;12.840;2023-01-09T13:12:47;13.40;80.50
19050;DHT22;9657;45.940;12.840;2023-01-09T13:15:25;13.40;80.50
19050;DHT22;9657;45.940;12.840;2023-01-09T13:17:56;13.40;80.50
19050;DHT22;9657;45.940;12.840;2023-01-09T13:20:32;13.40;80.50
19050;DHT22;9657;45.940;12.840;2023-01-09T13:23:03;13.40;80.50
19050;DHT22;9657;45.940;12.840;2023-01-09T13:25:35;13.40;80.50
19050;DHT22;9657;45.940;12.840;2023-01-09T13:28:06;13.40;80.50
19050;DHT22;9657;45.940;12.840;2023-01-09T13:30:49;13.50;80.60
19050;DHT22;9657;45.940;12.840;2023-01-09T13:33:20;13.40;80.50
19050;DHT22;9657;45.940;12.840;2023-01-09T13:35:51;13.40;80.50
19050;DHT22;9657;45.940;12.840;2023-01-09T13:38:21;13.40;80.50
19050;DHT22;9657;45.940;12.840;2023-01-09T13:41:01;13.40;80.50
19050;DHT22;9657;45.940;12.840;2023-01-09T13:43:57;13.40;80.50
19050;DHT22;9657;45.940;12.840;2023-01-09T13:46:35;13.40;80.60
19050;DHT22;9657;45.940;12.840;2023-01-09T13:49:03;13.40;80.50
19050;DHT22;9657;45.940;12.840;2023-01-09T13:52:03;13.40;80.50
19050;DHT22;9657;45.940;12.840;2023-01-09T13:54:59;13.40;80.60
19050;DHT22;9657;45.940;12.840;2023-01-09T13:57:28;13.40;80.60
19050;DHT22;9657;45.940;12.840;2023-01-09T13:59:58;13.40;80.50
19050;DHT22;9657;45.940;12.840;2023-01-09T14:03:04;13.40;80.50
19050;DHT22;9657;45.940;12.840;2023-01-09T14:06:09;13.50;80.60
19050;DHT22;9657;45.940;12.840;2023-01-09T14:08:38;13.40;80.60
19050;DHT22;9657;45.940;12.840;2023-01-09T14:11:06;13.40;80.60
19050;DHT22;9657;45.940;12.840;2023-01-09T14:13:39;13.40;80.50
19050;DHT22;9657;45.940;12.840;2023-01-09T14:16:13;13.40;80.60
19050;DHT22;9657;45.940;12.840;2023-01-09T14:18:47;13.40;80.50
19050;DHT22;9657;45.940;12.840;2023-01-09T14:21:15;13.40;80.60
19050;DHT22;9657;45.940;12.840;2023-01-09T14:23:49;13.40;80.50
19050;DHT22;9657;45.940;12.840;2023-01-09T14:26:20;13.50;80.60
19050;DHT22;9657;45.940;12.840;2023-01-09T14:28:48;13.40;80.50
19050;DHT22;9657;45.940;12.840;2023-01-09T14:31:28;13.40;80.50
19050;DHT22;9657;45.940;12.840;2023-01-09T14:34:28;13.40;80.60
19050;DHT22;9657;45.940;12.840;2023-01-09T14:36:58;13.40;80.60
19050;DHT22;9657;45.940;12.840;2023-01-09T14:39:29;13.40;80.50
19050;DHT22;9657;45.940;12.840;2023-01-09T14:41:59;13.40;80.50
19050;DHT22;9657;45.940;12.840;2023-01-09T14:44:38;13.40;80.50
19050;DHT22;9657;45.940;12.840;2023-01-09T14:47:13;13.50;80.60
19050;DHT22;9657;45.940;12.840;2023-01-09T14:49:45;13.40;80.50
19050;DHT22;9657;45.940;12.840;2023-01-09T14:52:20;13.40;80.50
19050;DHT22;9657;45.940;12.840;2023-01-09T14:54:48;13.40;80.50
19050;DHT22;9657;45.940;12.840;2023-01-09T14:57:23;13.40;80.50
19050;DHT22;9657;45.940;12.840;2023-01-09T14:59:55;13.40;80.50
19050;DHT22;9657;45.940;12.840;2023-01-09T15:02:23;13.40;80.60
19050;DHT22;9657;45.940;12.840;2023-01-09T15:04:55;13.40;80.50
19050;DHT22;9657;45.940;12.840;2023-01-09T15:07:26;13.40;80.50
19050;DHT22;9657;45.940;12.840;2023-01-09T15:09:59;13.40;80.60
19050;DHT22;9657;45.940;12.840;2023-01-09T15:12:28;13.40;80.50
19050;DHT22;9657;45.940;12.840;2023-01-09T15:14:59;13.40;80.50
19050;DHT22;9657;45.940;12.840;2023-01-09T15:17:28;13.40;80.50
19050;DHT22;9657;45.940;12.840;2023-01-09T15:19:59;13.40;80.50
19050;DHT22;9657;45.940;12.840;2023-01-09T15:22:29;13.40;80.50
19050;DHT22;9657;45.940;12.840;2023-01-09T15:24:57;13.40;80.50
19050;DHT22;9657;45.940;12.840;2023-01-09T15:27:25;13.40;80.50
19050;DHT22;9657;45.940;12.840;2023-01-09T15:29:52;13.40;80.50
19050;DHT22;9657;45.940;12.840;2023-01-09T15:32:22;13.40;80.50
19050;DHT22;9657;45.940;12.840;2023-01-09T15:34:51;13.40;80.50
19050;DHT22;9657;45.940;12.840;2023-01-09T15:37:26;13.40;80.60
19050;DHT22;9657;45.940;12.840;2023-01-09T15:39:55;13.40;80.50
19050;DHT22;9657;45.940;12.840;2023-01-09T15:42:24;13.40;80.50
19050;DHT22;9657;45.940;12.840;2023-01-09T15:45:18;13.40;80.50
19050;DHT22;9657;45.940;12.840;2023-01-09T15:47:47;13.40;80.50
19050;DHT22;9657;45.940;12.840;2023-01-09T15:50:15;13.40;80.50
19050;DHT22;9657;45.940;12.840;2023-01-09T15:52:44;13.40;80.50
19050;DHT22;9657;45.940;12.840;2023-01-09T15:55:21;13.40;80.50
19050;DHT22;9657;45.940;12.840;2023-01-09T15:57:50;13.40;80.50
19050;DHT22;9657;45.940;12.840;2023-01-09T16:00:44;13.40;80.50
19050;DHT22;9657;45.940;12.840;2023-01-09T16:03:20;13.40;80.50
19050;DHT22;9657;45.940;12.840;2023-01-09T16:05:52;13.40;80.50
19050;DHT22;9657;45.940;12.840;2023-01-09T16:08:29;13.40;80.50
19050;DHT22;9657;45.940;12.840;2023-01-09T16:11:00;13.40;80.50
19050;DHT22;9657;45.940;12.840;2023-01-09T16:13:30;13.40;80.60